Aviation Digital Data Service (ADDS)

Output produced by METARs form (1214 UTC 17 September 2019)
found at http://www.aviationweather.gov/metar/data/
 
METAR text: RKPC 171200Z 12005KT CAVOK 23/18 Q1015 NOSIG
Conditions at: RKPC (JEJU INTL AIRPO , KR) observed 1200 UTC 17 September 2019
Temperature: 23.0°C (73°F)
Dewpoint: 18.0°C (64°F) [RH = 73%]
Pressure (altimeter): 29.97 inches Hg (1015.0 mb)
Winds: from the ESE (120 degrees) at 6 MPH (5 knots; 2.6 m/s)
Visibility: 6 or more miles (10+ km)
Ceiling: ceiling and visibility are OK
Clouds: unknown
Weather: no significant weather observed at this time

METAR text: RKPC 171100Z 12006KT 080V150 CAVOK 23/18 Q1014 NOSIG
Conditions at: RKPC (JEJU INTL AIRPO , KR) observed 1100 UTC 17 September 2019
Temperature: 23.0°C (73°F)
Dewpoint: 18.0°C (64°F) [RH = 73%]
Pressure (altimeter): 29.94 inches Hg (1014.0 mb)
Winds: from the ESE (120 degrees) at 7 MPH (6 knots; 3.1 m/s)
Visibility: 6 or more miles (10+ km)
Ceiling: ceiling and visibility are OK
Clouds: unknown
Weather: no significant weather observed at this time

METAR text: RKPC 171000Z 11006KT CAVOK 23/18 Q1014 NOSIG
Conditions at: RKPC (JEJU INTL AIRPO , KR) observed 1000 UTC 17 September 2019
Temperature: 23.0°C (73°F)
Dewpoint: 18.0°C (64°F) [RH = 73%]
Pressure (altimeter): 29.94 inches Hg (1014.0 mb)
Winds: from the ESE (110 degrees) at 7 MPH (6 knots; 3.1 m/s)
Visibility: 6 or more miles (10+ km)
Ceiling: ceiling and visibility are OK
Clouds: unknown
Weather: no significant weather observed at this time

METAR text: RKPC 170900Z 07014KT CAVOK 23/18 Q1013 NOSIG
Conditions at: RKPC (JEJU INTL AIRPO , KR) observed 0900 UTC 17 September 2019
Temperature: 23.0°C (73°F)
Dewpoint: 18.0°C (64°F) [RH = 73%]
Pressure (altimeter): 29.91 inches Hg (1013.0 mb)
Winds: from the ENE (70 degrees) at 16 MPH (14 knots; 7.2 m/s)
Visibility: 6 or more miles (10+ km)
Ceiling: ceiling and visibility are OK
Clouds: unknown
Weather: no significant weather observed at this time

METAR text: RKPC 170800Z 07013KT 9999 FEW030 24/19 Q1013 NOSIG
Conditions at: RKPC (JEJU INTL AIRPO , KR) observed 0800 UTC 17 September 2019
Temperature: 24.0°C (75°F)
Dewpoint: 19.0°C (66°F) [RH = 74%]
Pressure (altimeter): 29.91 inches Hg (1013.0 mb)
Winds: from the ENE (70 degrees) at 15 MPH (13 knots; 6.7 m/s)
Visibility: 6 or more miles (10+ km)
Ceiling: at least 12,000 feet AGL
Clouds: few clouds at 3000 feet AGL
Weather: no significant weather observed at this time

METAR text: RKPC 170700Z 06014KT 9999 FEW030 24/19 Q1012 NOSIG
Conditions at: RKPC (JEJU INTL AIRPO , KR) observed 0700 UTC 17 September 2019
Temperature: 24.0°C (75°F)
Dewpoint: 19.0°C (66°F) [RH = 74%]
Pressure (altimeter): 29.88 inches Hg (1012.0 mb)
Winds: from the ENE (60 degrees) at 16 MPH (14 knots; 7.2 m/s)
Visibility: 6 or more miles (10+ km)
Ceiling: at least 12,000 feet AGL
Clouds: few clouds at 3000 feet AGL
Weather: no significant weather observed at this time

METAR text: RKPC 170600Z 07014KT 9999 SCT035 24/19 Q1013 NOSIG
Conditions at: RKPC (JEJU INTL AIRPO , KR) observed 0600 UTC 17 September 2019
Temperature: 24.0°C (75°F)
Dewpoint: 19.0°C (66°F) [RH = 74%]
Pressure (altimeter): 29.91 inches Hg (1013.0 mb)
Winds: from the ENE (70 degrees) at 16 MPH (14 knots; 7.2 m/s)
Visibility: 6 or more miles (10+ km)
Ceiling: at least 12,000 feet AGL
Clouds: scattered clouds at 3500 feet AGL
Weather: no significant weather observed at this time

METAR text: RKPC 170500Z 06013KT 9999 BKN030 24/19 Q1014 NOSIG
Conditions at: RKPC (JEJU INTL AIRPO , KR) observed 0500 UTC 17 September 2019
Temperature: 24.0°C (75°F)
Dewpoint: 19.0°C (66°F) [RH = 74%]
Pressure (altimeter): 29.94 inches Hg (1014.0 mb)
Winds: from the ENE (60 degrees) at 15 MPH (13 knots; 6.7 m/s)
Visibility: 6 or more miles (10+ km)
Ceiling: 3000 feet AGL
Clouds: broken clouds at 3000 feet AGL
Weather: no significant weather observed at this time

METAR text: RKPC 170400Z 07016KT 9999 SCT030 24/19 Q1014 NOSIG
Conditions at: RKPC (JEJU INTL AIRPO , KR) observed 0400 UTC 17 September 2019
Temperature: 24.0°C (75°F)
Dewpoint: 19.0°C (66°F) [RH = 74%]
Pressure (altimeter): 29.94 inches Hg (1014.0 mb)
Winds: from the ENE (70 degrees) at 18 MPH (16 knots; 8.2 m/s)
Visibility: 6 or more miles (10+ km)
Ceiling: at least 12,000 feet AGL
Clouds: scattered clouds at 3000 feet AGL
Weather: no significant weather observed at this time

METAR text: RKPC 170300Z 07015KT 9999 SCT035 24/19 Q1014 NOSIG
Conditions at: RKPC (JEJU INTL AIRPO , KR) observed 0300 UTC 17 September 2019
Temperature: 24.0°C (75°F)
Dewpoint: 19.0°C (66°F) [RH = 74%]
Pressure (altimeter): 29.94 inches Hg (1014.0 mb)
Winds: from the ENE (70 degrees) at 17 MPH (15 knots; 7.7 m/s)
Visibility: 6 or more miles (10+ km)
Ceiling: at least 12,000 feet AGL
Clouds: scattered clouds at 3500 feet AGL
Weather: no significant weather observed at this time

METAR text: RKPC 170200Z 07017KT 9999 SCT030 24/18 Q1014 NOSIG
Conditions at: RKPC (JEJU INTL AIRPO , KR) observed 0200 UTC 17 September 2019
Temperature: 24.0°C (75°F)
Dewpoint: 18.0°C (64°F) [RH = 69%]
Pressure (altimeter): 29.94 inches Hg (1014.0 mb)
Winds: from the ENE (70 degrees) at 20 MPH (17 knots; 8.7 m/s)
Visibility: 6 or more miles (10+ km)
Ceiling: at least 12,000 feet AGL
Clouds: scattered clouds at 3000 feet AGL
Weather: no significant weather observed at this time

METAR text: RKPC 170100Z 07015KT 9999 FEW030 SCT200 24/18 Q1014 NOSIG
Conditions at: RKPC (JEJU INTL AIRPO , KR) observed 0100 UTC 17 September 2019
Temperature: 24.0°C (75°F)
Dewpoint: 18.0°C (64°F) [RH = 69%]
Pressure (altimeter): 29.94 inches Hg (1014.0 mb)
Winds: from the ENE (70 degrees) at 17 MPH (15 knots; 7.7 m/s)
Visibility: 6 or more miles (10+ km)
Ceiling: at least 12,000 feet AGL
Clouds: few clouds at 3000 feet AGL
scattered clouds at 20000 feet AGL
Weather: no significant weather observed at this time

METAR text: RKPC 170000Z 08013KT 9999 FEW025 24/17 Q1014 NOSIG
Conditions at: RKPC (JEJU INTL AIRPO , KR) observed 0000 UTC 17 September 2019
Temperature: 24.0°C (75°F)
Dewpoint: 17.0°C (63°F) [RH = 65%]
Pressure (altimeter): 29.94 inches Hg (1014.0 mb)
Winds: from the E (80 degrees) at 15 MPH (13 knots; 6.7 m/s)
Visibility: 6 or more miles (10+ km)
Ceiling: at least 12,000 feet AGL
Clouds: few clouds at 2500 feet AGL
Weather: no significant weather observed at this time

METAR text: RKPC 162300Z 10010KT 9999 FEW025 23/17 Q1013 NOSIG
Conditions at: RKPC (JEJU INTL AIRPO , KR) observed 2300 UTC 16 September 2019
Temperature: 23.0°C (73°F)
Dewpoint: 17.0°C (63°F) [RH = 69%]
Pressure (altimeter): 29.91 inches Hg (1013.0 mb)
Winds: from the E (100 degrees) at 12 MPH (10 knots; 5.1 m/s)
Visibility: 6 or more miles (10+ km)
Ceiling: at least 12,000 feet AGL
Clouds: few clouds at 2500 feet AGL
Weather: no significant weather observed at this time

METAR text: RKPC 162200Z 12009KT 9999 SCT025 22/18 Q1013 NOSIG
Conditions at: RKPC (JEJU INTL AIRPO , KR) observed 2200 UTC 16 September 2019
Temperature: 22.0°C (72°F)
Dewpoint: 18.0°C (64°F) [RH = 78%]
Pressure (altimeter): 29.91 inches Hg (1013.0 mb)
Winds: from the ESE (120 degrees) at 10 MPH (9 knots; 4.6 m/s)
Visibility: 6 or more miles (10+ km)
Ceiling: at least 12,000 feet AGL
Clouds: scattered clouds at 2500 feet AGL
Weather: no significant weather observed at this time

METAR text: RKPC 162100Z 11008KT 9999 SCT030 22/18 Q1012 NOSIG
Conditions at: RKPC (JEJU INTL AIRPO , KR) observed 2100 UTC 16 September 2019
Temperature: 22.0°C (72°F)
Dewpoint: 18.0°C (64°F) [RH = 78%]
Pressure (altimeter): 29.88 inches Hg (1012.0 mb)
Winds: from the ESE (110 degrees) at 9 MPH (8 knots; 4.1 m/s)
Visibility: 6 or more miles (10+ km)
Ceiling: at least 12,000 feet AGL
Clouds: scattered clouds at 3000 feet AGL
Weather: no significant weather observed at this time

METAR text: RKPC 162000Z 11008KT CAVOK 22/18 Q1012 NOSIG
Conditions at: RKPC (JEJU INTL AIRPO , KR) observed 2000 UTC 16 September 2019
Temperature: 22.0°C (72°F)
Dewpoint: 18.0°C (64°F) [RH = 78%]
Pressure (altimeter): 29.88 inches Hg (1012.0 mb)
Winds: from the ESE (110 degrees) at 9 MPH (8 knots; 4.1 m/s)
Visibility: 6 or more miles (10+ km)
Ceiling: ceiling and visibility are OK
Clouds: unknown
Weather: no significant weather observed at this time

METAR text: RKPC 161900Z 10008KT 9999 FEW040 22/18 Q1011 NOSIG
Conditions at: RKPC (JEJU INTL AIRPO , KR) observed 1900 UTC 16 September 2019
Temperature: 22.0°C (72°F)
Dewpoint: 18.0°C (64°F) [RH = 78%]
Pressure (altimeter): 29.85 inches Hg (1011.0 mb)
Winds: from the E (100 degrees) at 9 MPH (8 knots; 4.1 m/s)
Visibility: 6 or more miles (10+ km)
Ceiling: at least 12,000 feet AGL
Clouds: few clouds at 4000 feet AGL
Weather: no significant weather observed at this time

METAR text: RKPC 161800Z 11010KT 9999 BKN045 23/18 Q1011 NOSIG
Conditions at: RKPC (JEJU INTL AIRPO , KR) observed 1800 UTC 16 September 2019
Temperature: 23.0°C (73°F)
Dewpoint: 18.0°C (64°F) [RH = 73%]
Pressure (altimeter): 29.85 inches Hg (1011.0 mb)
Winds: from the ESE (110 degrees) at 12 MPH (10 knots; 5.1 m/s)
Visibility: 6 or more miles (10+ km)
Ceiling: 4500 feet AGL
Clouds: broken clouds at 4500 feet AGL
Weather: no significant weather observed at this time

METAR text: RKPC 161700Z 11010KT 9999 BKN045 23/19 Q1011 NOSIG
Conditions at: RKPC (JEJU INTL AIRPO , KR) observed 1700 UTC 16 September 2019
Temperature: 23.0°C (73°F)
Dewpoint: 19.0°C (66°F) [RH = 78%]
Pressure (altimeter): 29.85 inches Hg (1011.0 mb)
Winds: from the ESE (110 degrees) at 12 MPH (10 knots; 5.1 m/s)
Visibility: 6 or more miles (10+ km)
Ceiling: 4500 feet AGL
Clouds: broken clouds at 4500 feet AGL
Weather: no significant weather observed at this time

METAR text: RKPC 161600Z 11010KT 9999 BKN045 24/20 Q1011 NOSIG
Conditions at: RKPC (JEJU INTL AIRPO , KR) observed 1600 UTC 16 September 2019
Temperature: 24.0°C (75°F)
Dewpoint: 20.0°C (68°F) [RH = 78%]
Pressure (altimeter): 29.85 inches Hg (1011.0 mb)
Winds: from the ESE (110 degrees) at 12 MPH (10 knots; 5.1 m/s)
Visibility: 6 or more miles (10+ km)
Ceiling: 4500 feet AGL
Clouds: broken clouds at 4500 feet AGL
Weather: no significant weather observed at this time

METAR text: RKPC 161500Z 11007KT 9999 SCT045 23/21 Q1011 NOSIG
Conditions at: RKPC (JEJU INTL AIRPO , KR) observed 1500 UTC 16 September 2019
Temperature: 23.0°C (73°F)
Dewpoint: 21.0°C (70°F) [RH = 89%]
Pressure (altimeter): 29.85 inches Hg (1011.0 mb)
Winds: from the ESE (110 degrees) at 8 MPH (7 knots; 3.6 m/s)
Visibility: 6 or more miles (10+ km)
Ceiling: at least 12,000 feet AGL
Clouds: scattered clouds at 4500 feet AGL
Weather: no significant weather observed at this time

METAR text: RKPC 161400Z 11006KT 9999 SCT045 23/21 Q1011 NOSIG
Conditions at: RKPC (JEJU INTL AIRPO , KR) observed 1400 UTC 16 September 2019
Temperature: 23.0°C (73°F)
Dewpoint: 21.0°C (70°F) [RH = 89%]
Pressure (altimeter): 29.85 inches Hg (1011.0 mb)
Winds: from the ESE (110 degrees) at 7 MPH (6 knots; 3.1 m/s)
Visibility: 6 or more miles (10+ km)
Ceiling: at least 12,000 feet AGL
Clouds: scattered clouds at 4500 feet AGL
Weather: no significant weather observed at this time

METAR text: RKPC 161300Z 10005KT 080V140 9999 FEW030 23/20 Q1011 NOSIG
Conditions at: RKPC (JEJU INTL AIRPO , KR) observed 1300 UTC 16 September 2019
Temperature: 23.0°C (73°F)
Dewpoint: 20.0°C (68°F) [RH = 83%]
Pressure (altimeter): 29.85 inches Hg (1011.0 mb)
Winds: from the E (100 degrees) at 6 MPH (5 knots; 2.6 m/s)
Visibility: 6 or more miles (10+ km)
Ceiling: at least 12,000 feet AGL
Clouds: few clouds at 3000 feet AGL
Weather: no significant weather observed at this time

METAR text: RKPC 161200Z 06004KT 9999 FEW015 SCT035 23/21 Q1011 NOSIG
Conditions at: RKPC (JEJU INTL AIRPO , KR) observed 1200 UTC 16 September 2019
Temperature: 23.0°C (73°F)
Dewpoint: 21.0°C (70°F) [RH = 89%]
Pressure (altimeter): 29.85 inches Hg (1011.0 mb)
Winds: from the ENE (60 degrees) at 5 MPH (4 knots; 2.1 m/s)
Visibility: 6 or more miles (10+ km)
Ceiling: at least 12,000 feet AGL
Clouds: few clouds at 1500 feet AGL
scattered clouds at 3500 feet AGL
Weather: no significant weather observed at this time

METAR text: RKPC 161100Z 05003KT 9999 FEW015 SCT030 23/21 Q1010 NOSIG
Conditions at: RKPC (JEJU INTL AIRPO , KR) observed 1100 UTC 16 September 2019
Temperature: 23.0°C (73°F)
Dewpoint: 21.0°C (70°F) [RH = 89%]
Pressure (altimeter): 29.82 inches Hg (1010.0 mb)
Winds: from the NE (50 degrees) at 3 MPH (3 knots; 1.5 m/s)
Visibility: 6 or more miles (10+ km)
Ceiling: at least 12,000 feet AGL
Clouds: few clouds at 1500 feet AGL
scattered clouds at 3000 feet AGL
Weather: no significant weather observed at this time

METAR text: RKPC 161000Z 02002KT 9999 FEW030 23/21 Q1010 NOSIG
Conditions at: RKPC (JEJU INTL AIRPO , KR) observed 1000 UTC 16 September 2019
Temperature: 23.0°C (73°F)
Dewpoint: 21.0°C (70°F) [RH = 89%]
Pressure (altimeter): 29.82 inches Hg (1010.0 mb)
Winds: from the NNE (20 degrees) at 2 MPH (2 knots; 1.0 m/s)
Visibility: 6 or more miles (10+ km)
Ceiling: at least 12,000 feet AGL
Clouds: few clouds at 3000 feet AGL
Weather: no significant weather observed at this time

METAR text: RKPC 160900Z 35003KT 360V070 CAVOK 24/21 Q1009 NOSIG
Conditions at: RKPC (JEJU INTL AIRPO , KR) observed 0900 UTC 16 September 2019
Temperature: 24.0°C (75°F)
Dewpoint: 21.0°C (70°F) [RH = 83%]
Pressure (altimeter): 29.79 inches Hg (1009.0 mb)
Winds: from the N (350 degrees) at 3 MPH (3 knots; 1.5 m/s)
Visibility: 6 or more miles (10+ km)
Ceiling: ceiling and visibility are OK
Clouds: unknown
Weather: no significant weather observed at this time

METAR text: RKPC 160800Z 35004KT 310V040 CAVOK 25/21 Q1009 NOSIG
Conditions at: RKPC (JEJU INTL AIRPO , KR) observed 0800 UTC 16 September 2019
Temperature: 25.0°C (77°F)
Dewpoint: 21.0°C (70°F) [RH = 79%]
Pressure (altimeter): 29.79 inches Hg (1009.0 mb)
Winds: from the N (350 degrees) at 5 MPH (4 knots; 2.1 m/s)
Visibility: 6 or more miles (10+ km)
Ceiling: ceiling and visibility are OK
Clouds: unknown
Weather: no significant weather observed at this time

METAR text: RKPC 160700Z 01004KT 330V040 CAVOK 25/21 Q1009 NOSIG
Conditions at: RKPC (JEJU INTL AIRPO , KR) observed 0700 UTC 16 September 2019
Temperature: 25.0°C (77°F)
Dewpoint: 21.0°C (70°F) [RH = 79%]
Pressure (altimeter): 29.79 inches Hg (1009.0 mb)
Winds: from the N (10 degrees) at 5 MPH (4 knots; 2.1 m/s)
Visibility: 6 or more miles (10+ km)
Ceiling: ceiling and visibility are OK
Clouds: unknown
Weather: no significant weather observed at this time

METAR text: RKPC 160600Z 01004KT 330V080 9999 FEW040 25/21 Q1009 NOSIG
Conditions at: RKPC (JEJU INTL AIRPO , KR) observed 0600 UTC 16 September 2019
Temperature: 25.0°C (77°F)
Dewpoint: 21.0°C (70°F) [RH = 79%]
Pressure (altimeter): 29.79 inches Hg (1009.0 mb)
Winds: from the N (10 degrees) at 5 MPH (4 knots; 2.1 m/s)
Visibility: 6 or more miles (10+ km)
Ceiling: at least 12,000 feet AGL
Clouds: few clouds at 4000 feet AGL
Weather: no significant weather observed at this time

METAR text: RKPC 160500Z 35005KT 290V050 9999 FEW040 25/22 Q1009 NOSIG
Conditions at: RKPC (JEJU INTL AIRPO , KR) observed 0500 UTC 16 September 2019
Temperature: 25.0°C (77°F)
Dewpoint: 22.0°C (72°F) [RH = 83%]
Pressure (altimeter): 29.79 inches Hg (1009.0 mb)
Winds: from the N (350 degrees) at 6 MPH (5 knots; 2.6 m/s)
Visibility: 6 or more miles (10+ km)
Ceiling: at least 12,000 feet AGL
Clouds: few clouds at 4000 feet AGL
Weather: no significant weather observed at this time

METAR text: RKPC 160400Z 35004KT 290V050 9999 FEW040 25/22 Q1010 NOSIG
Conditions at: RKPC (JEJU INTL AIRPO , KR) observed 0400 UTC 16 September 2019
Temperature: 25.0°C (77°F)
Dewpoint: 22.0°C (72°F) [RH = 83%]
Pressure (altimeter): 29.82 inches Hg (1010.0 mb)
Winds: from the N (350 degrees) at 5 MPH (4 knots; 2.1 m/s)
Visibility: 6 or more miles (10+ km)
Ceiling: at least 12,000 feet AGL
Clouds: few clouds at 4000 feet AGL
Weather: no significant weather observed at this time

METAR text: RKPC 160300Z 02006KT 340V070 9999 FEW010 BKN050 25/22 Q1010 NOSIG
Conditions at: RKPC (JEJU INTL AIRPO , KR) observed 0300 UTC 16 September 2019
Temperature: 25.0°C (77°F)
Dewpoint: 22.0°C (72°F) [RH = 83%]
Pressure (altimeter): 29.82 inches Hg (1010.0 mb)
Winds: from the NNE (20 degrees) at 7 MPH (6 knots; 3.1 m/s)
Visibility: 6 or more miles (10+ km)
Ceiling: 5000 feet AGL
Clouds: few clouds at 1000 feet AGL
broken clouds at 5000 feet AGL
Weather: no significant weather observed at this time

METAR text: RKPC 160200Z 03007KT 350V060 9999 SCT010 BKN050 25/22 Q1010 NOSIG
Conditions at: RKPC (JEJU INTL AIRPO , KR) observed 0200 UTC 16 September 2019
Temperature: 25.0°C (77°F)
Dewpoint: 22.0°C (72°F) [RH = 83%]
Pressure (altimeter): 29.82 inches Hg (1010.0 mb)
Winds: from the NNE (30 degrees) at 8 MPH (7 knots; 3.6 m/s)
Visibility: 6 or more miles (10+ km)
Ceiling: 5000 feet AGL
Clouds: scattered clouds at 1000 feet AGL
broken clouds at 5000 feet AGL
Weather: no significant weather observed at this time

METAR text: RKPC 160100Z 03006KT 360V060 9999 FEW015 BKN050 24/22 Q1010 NOSIG
Conditions at: RKPC (JEJU INTL AIRPO , KR) observed 0100 UTC 16 September 2019
Temperature: 24.0°C (75°F)
Dewpoint: 22.0°C (72°F) [RH = 89%]
Pressure (altimeter): 29.82 inches Hg (1010.0 mb)
Winds: from the NNE (30 degrees) at 7 MPH (6 knots; 3.1 m/s)
Visibility: 6 or more miles (10+ km)
Ceiling: 5000 feet AGL
Clouds: few clouds at 1500 feet AGL
broken clouds at 5000 feet AGL
Weather: no significant weather observed at this time

Forecast for: RKPC (JEJU INTL AIRPO , KR)
Text: TAF RKPC 171100Z 1712/1818 10007KT CAVOK TN21/1720Z TX25/1805Z
Forecast period: 1200 UTC 17 September 2019 to 0000 UTC 18 September 2019
Forecast type: FROM: standard forecast or significant change
Winds: from the E (100 degrees) at 8 MPH (7 knots; 3.6 m/s)
Visibility: 6 or more miles 10+ km)
Ceiling: unknown
Clouds: missing
Weather: no significant weather forecast for this period
Text: BECMG 1800/1801 35010KT
Forecast period: 0000 to 1600 UTC 18 September 2019
Forecast type: BECOMING: Conditions expected to become as follows by 0100 UTC 18 September 2019
Winds: from the N (350 degrees) at 12 MPH (10 knots; 5.1 m/s)
Visibility: 6 or more miles 10+ km)
Ceiling: unknown
Clouds: missing
Weather: no significant weather forecast for this period
Text: BECMG 1816/1817 05007KT
Forecast period: 1600 to 1800 UTC 18 September 2019
Forecast type: BECOMING: Conditions expected to become as follows by 1700 UTC 18 September 2019
Winds: from the NE (50 degrees) at 8 MPH (7 knots; 3.6 m/s)
Visibility: 6 or more miles 10+ km)
Ceiling: unknown
Clouds: missing
Weather: no significant weather forecast for this period